カシュガル空港の過去48時間の天気

カシュガル空港 (Kashi)

現在時刻: 9/23 05:25 CST (9/22 21:25 UTC) 以下の時間は現地時間です。

過去48時間のMETAR気象情報
時間 風向 風速(m/s) 視程 気温(℃) 湿度(%) 気圧(hPa) 天気現象
23 05:00 北西 6 10km以上 19 30 1022
23 04:00 北西 6 10km以上 19 30 1023
23 03:00 北西 6 10km以上 19 32 1023
23 02:00 北西 5 10km以上 20 30 1022
23 01:00 北西 5 10km以上 20 30 1022
23 00:00 北西 5 10km以上 20 32 1022
22 23:00 北西 2 10km以上 22 27 1022
22 22:00 静穏 0 10km以上 23 25 1021
22 21:00 南東 1 10km以上 25 21 1020
22 20:00 3 10km以上 27 17 1020
22 19:00 南東 4 10km以上 28 14 1020
22 18:00 3 10km以上 28 13 1020
22 17:00 東南東 3 10km以上 28 12 1020
22 16:00 4 10km以上 28 13 1021
22 15:00 4 10km以上 27 16 1022
22 14:00 4 10km以上 26 18 1022
22 13:00 東北東 3 10km以上 25 19 1023
22 12:00 不定 2 10km以上 24 21 1023
22 11:00 北西 5 10km以上 22 25 1023
22 10:00 北西 5 10km以上 19 32 1022
22 09:00 北西 6 10km以上 17 34 1022
22 08:00 北西 6 10km以上 17 34 1022
22 07:00 北西 5 10km以上 18 32 1021
22 06:00 北西 5 10km以上 18 32 1021
22 05:00 北西 5 10km以上 18 32 1022
22 04:00 北西 5 10km以上 18 32 1022
22 03:00 北西 5 10km以上 19 30 1022
22 02:00 北西 5 10km以上 19 32 1022
22 01:00 北西 3 10km以上 19 37 1022
22 00:00 北西 3 10km以上 20 30 1022
21 23:00 不定 1 10km以上 22 27 1022
21 22:00 静穏 0 10km以上 23 23 1021
21 21:00 不定 1 10km以上 24 22 1021
21 20:00 東南東 3 10km以上 26 18 1021
21 19:00 南東 2 10km以上 26 17 1021
21 18:00 東南東 5 10km以上 28 14 1021
21 17:00 3 10km以上 27 14 1021
21 16:00 4 10km以上 27 15 1022
21 15:00 東北東 4 10km以上 26 17 1023
21 14:00 4 10km以上 25 21 1023
21 13:00 東北東 4 10km以上 24 22 1024
21 12:00 3 10km以上 23 23 1024
21 11:00 4 10km以上 21 28 1024
21 10:00 北西 4 10km以上 18 39 1024
21 09:00 北西 5 10km以上 16 45 1024
21 08:00 北西 5 10km以上 17 42 1023
21 07:00 北西 3 10km以上 17 42 1023
21 06:00 西 4 10km以上 17 42 1023
ZWSH 222100Z 31006MPS CAVOK 19/01 Q1022 NOSIG
ZWSH 222000Z 31006MPS CAVOK 19/01 Q1023 NOSIG
ZWSH 221900Z AUTO 31006MPS 9999 // ////// 19/02 Q1023
ZWSH 221800Z AUTO 31005MPS 9999 // ////// 20/02 Q1022
ZWSH 221700Z 32005MPS CAVOK 20/02 Q1022 NOSIG
ZWSH 221600Z 31005MPS CAVOK 20/03 Q1022 NOSIG
ZWSH 221500Z 32002MPS CAVOK 22/02 Q1022 NOSIG
ZWSH 221400Z 00000MPS CAVOK 23/02 Q1021 NOSIG
ZWSH 221300Z 13001MPS CAVOK 25/01 Q1020 NOSIG
ZWSH 221200Z 10003MPS CAVOK 27/00 Q1020 NOSIG
ZWSH 221100Z 13004MPS 080V170 CAVOK 28/M02 Q1020 NOSIG
ZWSH 221000Z 10003MPS 050V140 CAVOK 28/M03 Q1020 NOSIG
ZWSH 220900Z 11003MPS 070V140 CAVOK 28/M04 Q1020 NOSIG
ZWSH 220800Z 09004MPS 050V130 CAVOK 28/M03 Q1021 NOSIG
ZWSH 220700Z 08004MPS 030V130 CAVOK 27/M01 Q1022 NOSIG
ZWSH 220600Z 09004MPS 030V130 CAVOK 26/00 Q1022 NOSIG
ZWSH 220500Z 07003MPS 010V110 CAVOK 25/M00 Q1023 NOSIG
ZWSH 220400Z VRB02MPS CAVOK 24/00 Q1023 NOSIG
ZWSH 220300Z 32005MPS CAVOK 22/01 Q1023 NOSIG
ZWSH 220200Z 31005MPS CAVOK 19/02 Q1022 NOSIG
ZWSH 220100Z 31006MPS CAVOK 17/01 Q1022 NOSIG
ZWSH 220000Z 31006MPS CAVOK 17/01 Q1022 NOSIG
ZWSH 212300Z 31005MPS CAVOK 18/01 Q1021 NOSIG
ZWSH 212200Z 32005MPS CAVOK 18/01 Q1021 NOSIG
ZWSH 212100Z 31005MPS CAVOK 18/01 Q1022 NOSIG
ZWSH 212000Z 31005MPS CAVOK 18/01 Q1022 NOSIG
ZWSH 211900Z AUTO 31005MPS 9999 // ////// 19/01 Q1022
ZWSH 211800Z AUTO 32005MPS 9999 // ////// 19/02 Q1022
ZWSH 211700Z 32003MPS CAVOK 19/04 Q1022 NOSIG
ZWSH 211600Z 32003MPS CAVOK 20/02 Q1022 NOSIG
ZWSH 211500Z VRB01MPS CAVOK 22/02 Q1022 NOSIG
ZWSH 211400Z 00000MPS CAVOK 23/01 Q1021 NOSIG
ZWSH 211300Z VRB01MPS CAVOK 24/01 Q1021 NOSIG
ZWSH 211200Z 11003MPS CAVOK 26/00 Q1021 NOSIG
ZWSH 211100Z 13002MPS 060V180 CAVOK 26/M01 Q1021 NOSIG
ZWSH 211000Z 11005MPS CAVOK 28/M02 Q1021 NOSIG
ZWSH 210900Z 10003MPS 040V130 9999 FEW040 27/M03 Q1021 NOSIG
ZWSH 210800Z 10004MPS 070V140 9999 FEW040 27/M02 Q1022 NOSIG
ZWSH 210700Z 07004MPS 040V150 9999 FEW040 26/M01 Q1023 NOSIG
ZWSH 210600Z 08004MPS 020V110 CAVOK 25/01 Q1023 NOSIG
ZWSH 210500Z 07004MPS 040V100 CAVOK 24/01 Q1024 NOSIG
ZWSH 210400Z VRB03MPS CAVOK 23/01 Q1024 NOSIG
ZWSH 210300Z VRB04MPS CAVOK 21/02 Q1024 NOSIG
ZWSH 210200Z 32004MPS CAVOK 18/04 Q1024 NOSIG
ZWSH 210100Z 32005MPS CAVOK 16/04 Q1024 NOSIG
ZWSH 210000Z 31005MPS CAVOK 17/04 Q1023 NOSIG
ZWSH 202300Z 32003MPS CAVOK 17/04 Q1023 NOSIG
ZWSH 202200Z 27004MPS CAVOK 17/04 Q1023 NOSIG